Time;durP1;ratioP1;P1;durP2;ratioP2;P2;SDS_P1;SDS_P2;PMS_P1;PMS_P2;Temp;Humidity;BMP_temperature;BMP_pressure;BME280_temperature;BME280_humidity;BME280_pressure;Samples;Min_cycle;Max_cycle;Signal;HPM_P1;HPM_P2
2024/04/11 00:01:07;;;;;;;3.47;3.13;;;11.40;86.10;;;;;;5524911;26;20001;-75
2024/04/11 00:03:34;;;;;;;2.85;2.15;;;11.40;86.30;;;;;;5526417;26;20005;-75
2024/04/11 00:06:02;;;;;;;3.28;2.92;;;11.40;86.40;;;;;;5526245;25;19997;-75
2024/04/11 00:08:30;;;;;;;4.05;2.33;;;11.50;86.40;;;;;;5494425;26;20021;-75
2024/04/11 00:10:57;;;;;;;2.45;2.05;;;11.50;86.40;;;;;;5524604;26;20005;-75
2024/04/11 00:13:24;;;;;;;8.48;3.08;;;11.60;86.50;;;;;;5526808;25;19993;-75
2024/04/11 00:15:55;;;;;;;2.05;1.92;;;11.60;85.90;;;;;;5523828;26;20468;-75
2024/04/11 00:18:24;;;;;;;6.32;3.90;;;11.60;86.20;;;;;;5526225;25;19997;-75
2024/04/11 00:20:54;;;;;;;2.30;2.17;;;11.60;86.00;;;;;;5523006;26;20013;-75
2024/04/11 00:23:25;;;;;;;2.65;1.85;;;11.70;86.10;;;;;;5524181;26;20449;-75
2024/04/11 00:25:57;;;;;;;7.22;3.47;;;11.70;86.00;;;;;;5524348;26;20037;-75
2024/04/11 00:28:25;;;;;;;1.92;1.83;;;11.70;86.10;;;;;;5524318;26;20009;-75
2024/04/11 00:30:53;;;;;;;4.95;2.00;;;11.70;86.10;;;;;;5523783;26;19997;-75
2024/04/11 00:33:21;;;;;;;7.38;2.38;;;11.70;85.90;;;;;;5525825;26;20008;-75
2024/04/11 00:35:49;;;;;;;3.17;2.38;;;11.70;86.20;;;;;;5525452;25;20026;-75
2024/04/11 00:38:22;;;;;;;3.45;2.17;;;11.70;86.30;;;;;;5524021;26;20449;-75
2024/04/11 00:40:56;;;;;;;8.00;2.33;;;11.70;86.30;;;;;;5524024;26;20323;-75
2024/04/11 00:43:25;;;;;;;3.97;2.45;;;11.70;86.40;;;;;;5524254;26;19993;-75
2024/04/11 00:45:56;;;;;;;4.50;1.85;;;11.70;86.50;;;;;;5524002;26;20040;-75
2024/04/11 00:48:25;;;;;;;3.42;2.47;;;11.70;86.60;;;;;;5526349;25;20436;-75
2024/04/11 00:50:53;;;;;;;3.97;2.15;;;11.70;86.80;;;;;;5523311;25;19993;-75
2024/04/11 00:53:22;;;;;;;3.97;1.65;;;11.70;86.80;;;;;;5493273;26;19997;-75
2024/04/11 00:55:50;;;;;;;6.03;2.80;;;11.70;86.80;;;;;;5523528;26;19998;-75
2024/04/11 00:58:17;;;;;;;5.68;2.78;;;11.80;86.80;;;;;;5525310;25;20073;-75
2024/04/11 01:00:45;;;;;;;2.85;2.38;;;11.70;86.80;;;;;;5523402;26;19997;-75
2024/04/11 01:03:12;;;;;;;14.07;2.85;;;11.70;86.70;;;;;;5523573;26;20009;-75
2024/04/11 01:05:39;;;;;;;2.70;1.80;;;11.70;86.50;;;;;;5524976;26;19993;-75
2024/04/11 01:08:07;;;;;;;3.03;2.30;;;11.70;86.60;;;;;;5525348;25;20012;-75
2024/04/11 01:10:35;;;;;;;4.03;2.20;;;11.80;86.80;;;;;;5492710;26;20013;-75
2024/04/11 01:13:04;;;;;;;3.78;3.28;;;11.80;86.90;;;;;;5522904;26;20071;-75
2024/04/11 01:15:40;;;;;;;4.70;3.17;;;11.80;87.10;;;;;;5523587;26;20442;-75
2024/04/11 01:18:07;;;;;;;5.97;2.70;;;11.80;87.10;;;;;;5525607;25;19998;-75
2024/04/11 01:20:36;;;;;;;2.85;2.63;;;11.80;87.40;;;;;;5525417;26;19994;-75
2024/04/11 01:23:07;;;;;;;4.20;1.90;;;11.80;87.20;;;;;;5524710;25;20394;-75
2024/04/11 01:25:34;;;;;;;6.03;2.30;;;11.90;86.90;;;;;;5525386;25;20005;-75
2024/04/11 01:28:01;;;;;;;3.83;2.42;;;11.90;86.80;;;;;;5522961;26;19989;-75
2024/04/11 01:30:29;;;;;;;3.08;2.63;;;11.90;86.90;;;;;;5523070;26;20030;-75
2024/04/11 01:33:09;;;;;;;5.15;2.38;;;11.90;87.20;;;;;;5493773;26;20042;-75
2024/04/11 01:35:37;;;;;;;7.53;2.42;;;11.90;86.90;;;;;;5526663;26;20072;-75
2024/04/11 01:38:05;;;;;;;4.05;2.08;;;11.90;86.90;;;;;;5528285;26;19997;-75
2024/04/11 01:40:36;;;;;;;4.80;2.70;;;11.90;87.00;;;;;;5526769;26;19998;-75
2024/04/11 01:43:04;;;;;;;5.15;2.40;;;12.00;87.10;;;;;;5528108;25;20036;-75
2024/04/11 01:45:32;;;;;;;1.27;0.88;;;11.90;87.00;;;;;;5496231;26;20599;-75
2024/04/11 01:47:59;;;;;;;3.30;1.85;;;11.90;87.10;;;;;;5526121;26;20467;-75
2024/04/11 01:50:26;;;;;;;2.60;2.17;;;11.90;87.00;;;;;;5528319;26;20001;-75
2024/04/11 01:52:54;;;;;;;5.93;2.05;;;12.00;87.20;;;;;;5520685;25;20030;-75
2024/04/11 01:55:22;;;;;;;3.95;1.80;;;12.00;87.40;;;;;;5504101;26;20360;-75
2024/04/11 01:57:49;;;;;;;6.25;2.63;;;12.00;87.30;;;;;;5495414;26;20069;-75
2024/04/11 02:00:16;;;;;;;5.97;3.10;;;12.00;87.40;;;;;;5527619;25;20502;-75
2024/04/11 02:02:43;;;;;;;4.20;2.03;;;12.00;87.30;;;;;;5524622;26;19997;-75
2024/04/11 02:05:11;;;;;;;4.90;2.28;;;11.90;87.40;;;;;;5459559;26;20026;-75
2024/04/11 02:07:39;;;;;;;3.22;3.03;;;11.90;87.60;;;;;;5491464;26;19994;-75
2024/04/11 02:10:06;;;;;;;5.28;2.08;;;11.90;87.80;;;;;;5489010;26;19998;-75
2024/04/11 02:12:33;;;;;;;4.28;2.28;;;11.90;87.50;;;;;;5491192;26;19998;-75
2024/04/11 02:15:00;;;;;;;2.90;1.55;;;11.90;87.70;;;;;;5488897;26;20396;-75
2024/04/11 02:17:30;;;;;;;2.63;1.95;;;11.90;87.80;;;;;;5489151;26;20006;-75
2024/04/11 02:19:59;;;;;;;7.72;1.85;;;11.90;87.60;;;;;;5488751;26;20069;-75
2024/04/11 02:22:26;;;;;;;2.25;1.85;;;11.90;87.80;;;;;;5490955;26;20480;-75
2024/04/11 02:24:53;;;;;;;2.45;1.88;;;11.90;87.80;;;;;;5488972;26;20010;-75
2024/04/11 02:27:20;;;;;;;4.85;2.15;;;11.90;88.10;;;;;;5488956;26;20010;-75
2024/04/11 02:29:47;;;;;;;4.22;2.10;;;11.90;88.40;;;;;;5490776;26;20332;-75
2024/04/11 02:32:14;;;;;;;2.38;1.67;;;11.90;88.30;;;;;;5489020;26;20010;-75
2024/04/11 02:34:41;;;;;;;4.30;3.38;;;11.90;88.40;;;;;;5489001;26;20008;-75
2024/04/11 02:37:08;;;;;;;2.22;1.88;;;11.90;88.40;;;;;;5488644;26;19994;-75
2024/04/11 02:39:35;;;;;;;5.85;2.60;;;11.80;88.30;;;;;;5491115;26;19994;-75
2024/04/11 02:42:03;;;;;;;6.43;4.03;;;11.90;88.50;;;;;;5490509;26;20006;-75
2024/04/11 02:44:33;;;;;;;5.13;1.90;;;11.90;88.50;;;;;;5488560;26;19994;-75
2024/04/11 02:47:01;;;;;;;6.60;2.70;;;11.90;88.60;;;;;;5488898;26;19995;-75
2024/04/11 02:49:28;;;;;;;5.47;2.53;;;11.90;88.60;;;;;;5490660;26;20069;-75
2024/04/11 02:51:55;;;;;;;4.72;2.05;;;12.00;88.90;;;;;;5490176;26;20017;-75
2024/04/11 02:54:23;;;;;;;6.43;1.83;;;11.80;88.80;;;;;;5458593;26;19998;-75
2024/04/11 02:56:50;;;;;;;3.42;1.75;;;11.90;88.90;;;;;;5488556;26;20013;-75
2024/04/11 02:59:17;;;;;;;2.28;2.08;;;11.90;89.60;;;;;;5488416;26;20002;-75
2024/04/11 03:01:44;;;;;;;3.83;2.10;;;11.90;89.20;;;;;;5491086;26;20512;-75
2024/04/11 03:04:12;;;;;;;5.07;2.00;;;11.90;89.20;;;;;;5487635;26;20071;-75
2024/04/11 03:06:40;;;;;;;5.07;2.42;;;11.90;89.10;;;;;;5457273;26;20002;-75
2024/04/11 03:09:09;;;;;;;3.40;2.35;;;11.90;89.20;;;;;;5489704;26;19998;-75
2024/04/11 03:11:40;;;;;;;2.75;1.85;;;11.90;89.40;;;;;;5490702;26;19995;-75
2024/04/11 03:14:07;;;;;;;1.88;1.50;;;11.90;89.40;;;;;;5458355;26;20005;-75
2024/04/11 03:16:34;;;;;;;3.88;2.80;;;11.90;89.40;;;;;;5428688;26;19994;-75
2024/04/11 03:19:01;;;;;;;4.32;2.38;;;11.90;89.60;;;;;;5490180;26;20013;-75
2024/04/11 03:21:29;;;;;;;2.08;1.85;;;11.90;89.80;;;;;;5490193;26;20331;-75
2024/04/11 03:23:56;;;;;;;2.75;2.08;;;11.90;89.90;;;;;;5458275;26;20005;-75
2024/04/11 03:26:23;;;;;;;4.15;3.13;;;11.90;90.20;;;;;;5458233;26;20005;-75
2024/04/11 03:28:50;;;;;;;2.08;1.70;;;11.90;90.30;;;;;;5487984;26;20012;-75
2024/04/11 03:31:21;;;;;;;5.63;1.92;;;11.80;90.40;;;;;;5457781;26;20396;-75
2024/04/11 03:33:50;;;;;;;4.20;1.90;;;11.90;90.40;;;;;;5488168;26;20009;-75
2024/04/11 03:36:19;;;;;;;4.18;2.50;;;11.90;90.40;;;;;;5458330;26;20002;-75
2024/04/11 03:38:46;;;;;;;5.20;1.85;;;11.80;90.30;;;;;;5489887;26;19998;-75
2024/04/11 03:41:14;;;;;;;3.60;2.65;;;11.90;90.40;;;;;;5489644;26;20074;-75
2024/04/11 03:43:42;;;;;;;8.80;1.35;;;11.90;90.40;;;;;;5458090;26;20317;-75
2024/04/11 03:46:24;;;;;;;3.00;1.33;;;11.90;90.40;;;;;;5489511;26;19999;-75
2024/04/11 03:48:56;;;;;;;2.22;1.35;;;12.00;90.40;;;;;;5488237;26;20454;-75
2024/04/11 03:51:28;;;;;;;1.02;1.02;;;12.00;90.40;;;;;;5487895;26;20009;-75
2024/04/11 03:53:56;;;;;;;5.15;2.13;;;12.00;90.40;;;;;;5490133;26;19993;-75
2024/04/11 03:56:25;;;;;;;2.45;2.17;;;12.10;90.50;;;;;;5486445;26;20049;-75
2024/04/11 03:58:53;;;;;;;4.10;2.53;;;12.10;90.50;;;;;;5489739;26;20431;-75
2024/04/11 04:01:21;;;;;;;2.00;1.90;;;12.10;90.60;;;;;;5489571;26;19995;-75
2024/04/11 04:03:53;;;;;;;6.00;1.85;;;12.20;90.50;;;;;;5489960;26;20005;-75
2024/04/11 04:06:21;;;;;;;4.82;2.78;;;12.10;90.40;;;;;;5487741;26;20404;-75
2024/04/11 04:08:49;;;;;;;4.13;2.28;;;12.20;90.40;;;;;;5489459;26;20017;-75
2024/04/11 04:11:18;;;;;;;3.88;2.53;;;12.20;90.50;;;;;;5489096;26;19998;-75
2024/04/11 04:13:45;;;;;;;3.88;2.00;;;12.20;90.40;;;;;;5457276;26;20336;-75
2024/04/11 04:16:16;;;;;;;1.70;1.45;;;12.20;90.50;;;;;;5488979;26;20033;-75
2024/04/11 04:18:46;;;;;;;2.72;2.25;;;12.30;90.40;;;;;;5487868;26;20092;-75
2024/04/11 04:21:14;;;;;;;2.40;1.92;;;12.30;90.50;;;;;;5456989;26;20017;-75
2024/04/11 04:23:47;;;;;;;3.33;1.75;;;12.30;90.40;;;;;;5487371;26;20467;-75
2024/04/11 04:26:19;;;;;;;2.55;2.35;;;12.30;90.50;;;;;;5488881;26;20030;-75
2024/04/11 04:28:48;;;;;;;1.90;1.80;;;12.30;90.70;;;;;;5487744;26;20026;-75
2024/04/11 04:31:16;;;;;;;4.93;2.03;;;12.30;90.70;;;;;;5489228;26;20009;-74
2024/04/11 04:33:47;;;;;;;2.58;2.42;;;12.30;91.10;;;;;;5487385;26;20397;-75
2024/04/11 04:36:28;;;;;;;5.57;3.05;;;12.20;91.50;;;;;;5487172;26;19998;-75
2024/04/11 04:38:58;;;;;;;4.38;1.55;;;12.10;92.10;;;;;;5489827;26;20308;-75
2024/04/11 04:41:27;;;;;;;2.67;2.03;;;11.90;93.00;;;;;;5488627;26;20008;-75
2024/04/11 04:44:00;;;;;;;5.47;2.22;;;11.70;93.60;;;;;;5487291;26;20127;-75
2024/04/11 04:46:34;;;;;;;2.20;2.00;;;11.60;94.20;;;;;;5488540;26;19998;-75
2024/04/11 04:49:09;;;;;;;5.05;2.70;;;11.40;94.50;;;;;;5487227;26;20074;-76
2024/04/11 04:51:37;;;;;;;5.07;2.80;;;11.30;94.90;;;;;;5488816;26;20393;-76
2024/04/11 04:54:04;;;;;;;5.03;2.90;;;11.20;95.40;;;;;;5488680;26;19998;-76
2024/04/11 04:56:36;;;;;;;2.30;2.05;;;11.10;96.10;;;;;;5486461;26;20012;-76
2024/04/11 04:59:03;;;;;;;4.35;2.22;;;11.00;96.40;;;;;;5486804;26;20080;-76
2024/04/11 05:01:33;;;;;;;4.63;1.90;;;11.00;96.80;;;;;;5496973;26;20618;-76
2024/04/11 05:04:00;;;;;;;3.72;2.63;;;10.90;97.30;;;;;;5488281;26;20309;-76
2024/04/11 05:06:29;;;;;;;4.63;1.80;;;10.90;97.40;;;;;;5487583;26;20520;-76
2024/04/11 05:08:56;;;;;;;3.42;2.75;;;10.90;97.60;;;;;;5459904;26;19994;-76
2024/04/11 05:11:25;;;;;;;5.70;3.28;;;10.90;97.80;;;;;;5430296;26;20009;-76
2024/04/11 05:13:53;;;;;;;7.07;2.67;;;10.90;98.00;;;;;;5460199;26;19994;-76
2024/04/11 05:16:20;;;;;;;7.68;2.83;;;11.00;98.40;;;;;;5489872;26;20006;-76
2024/04/11 05:18:53;;;;;;;2.92;2.65;;;10.90;98.60;;;;;;5491648;26;20051;-76
2024/04/11 05:21:24;;;;;;;5.55;2.40;;;10.90;99.40;;;;;;5490241;26;20022;-76
2024/04/11 05:23:53;;;;;;;4.45;3.22;;;10.80;99.80;;;;;;5490255;26;19994;-75
2024/04/11 05:26:24;;;;;;;3.38;3.13;;;10.80;99.90;;;;;;5489926;26;20002;-76
2024/04/11 05:28:53;;;;;;;2.63;2.42;;;10.80;99.90;;;;;;5460090;26;19998;-75
2024/04/11 05:31:25;;;;;;;5.75;3.65;;;10.70;99.90;;;;;;5491369;26;20010;-75
2024/04/11 05:33:54;;;;;;;3.88;2.72;;;10.70;99.90;;;;;;5491603;26;20022;-76
2024/04/11 05:36:25;;;;;;;4.18;2.88;;;10.60;99.90;;;;;;5491161;26;20020;-76
2024/04/11 05:38:53;;;;;;;5.07;2.75;;;10.50;99.90;;;;;;5491579;26;20431;-76
2024/04/11 05:41:20;;;;;;;5.05;2.95;;;10.40;99.90;;;;;;5489555;26;20030;-75
2024/04/11 05:43:50;;;;;;;6.70;3.30;;;10.40;99.90;;;;;;5489611;26;20071;-75
2024/04/11 05:46:18;;;;;;;3.58;2.33;;;10.30;99.90;;;;;;5459256;26;20051;-75
2024/04/11 05:48:47;;;;;;;5.68;4.18;;;10.30;99.90;;;;;;5491666;26;20009;-76
2024/04/11 05:51:15;;;;;;;4.65;3.38;;;10.20;99.90;;;;;;5489909;26;20026;-76
2024/04/11 05:53:42;;;;;;;5.07;3.05;;;10.20;99.90;;;;;;5491726;26;20385;-76
2024/04/11 05:56:13;;;;;;;3.33;2.70;;;10.20;99.90;;;;;;5491595;26;20380;-76
2024/04/11 05:58:42;;;;;;;5.00;2.95;;;10.20;99.90;;;;;;5490969;26;19995;-75
2024/04/11 06:01:15;;;;;;;5.97;2.47;;;10.30;99.90;;;;;;5491710;26;20546;-76
2024/04/11 06:03:50;;;;;;;3.65;2.80;;;10.30;99.90;;;;;;5493666;26;20021;-76
2024/04/11 06:06:20;;;;;;;6.10;3.83;;;10.30;99.90;;;;;;5487840;26;20484;-76
2024/04/11 06:08:50;;;;;;;4.30;3.08;;;10.30;99.90;;;;;;5488778;26;20012;-76
2024/04/11 06:11:17;;;;;;;5.65;2.80;;;10.30;99.90;;;;;;5489096;26;20439;-76
2024/04/11 06:13:48;;;;;;;3.30;2.70;;;10.30;99.90;;;;;;5490929;26;20073;-76
2024/04/11 06:16:16;;;;;;;;;;;10.40;99.90;;;;;;5489768;26;19998;-76
2024/04/11 06:18:48;;;;;;;3.72;2.58;;;10.40;99.90;;;;;;5487895;26;20246;-76
2024/04/11 06:21:36;;;;;;;3.92;2.42;;;10.40;99.90;;;;;;5485962;26;20002;-76
2024/04/11 06:24:04;;;;;;;5.25;2.85;;;10.40;99.90;;;;;;5458914;26;20074;-76
2024/04/11 06:26:32;;;;;;;3.85;2.60;;;10.40;99.90;;;;;;5490634;26;20013;-76
2024/04/11 06:29:00;;;;;;;8.68;4.13;;;10.40;99.90;;;;;;5491093;26;20006;-76
2024/04/11 06:31:30;;;;;;;4.78;3.60;;;10.40;99.90;;;;;;5488799;26;19994;-76
2024/04/11 06:33:57;;;;;;;;;;;10.50;99.90;;;;;;5489837;26;20033;-76
2024/04/11 06:36:25;;;;;;;4.63;3.83;;;10.50;99.90;;;;;;5490364;26;20322;-76
2024/04/11 06:38:52;;;;;;;3.97;2.17;;;10.50;99.90;;;;;;5490938;26;20006;-76
2024/04/11 06:41:22;;;;;;;2.45;2.15;;;10.50;99.90;;;;;;5490618;26;20016;-76
2024/04/11 06:43:50;;;;;;;3.83;2.83;;;10.50;99.90;;;;;;5490523;26;20324;-76
2024/04/11 06:46:18;;;;;;;6.00;2.88;;;10.50;99.90;;;;;;5488711;26;19998;-77
2024/04/11 06:48:45;;;;;;;2.90;2.65;;;10.60;99.90;;;;;;5488488;26;20013;-76
2024/04/11 06:51:15;;;;;;;2.95;2.63;;;10.60;99.90;;;;;;5490204;26;20010;-76
2024/04/11 06:53:46;;;;;;;4.25;2.42;;;10.60;99.90;;;;;;5490084;26;20002;-76
2024/04/11 06:56:17;;;;;;;3.38;3.13;;;10.60;99.90;;;;;;5488689;26;19998;-76
2024/04/11 06:58:45;;;;;;;7.35;3.03;;;10.70;99.90;;;;;;5489963;26;20070;-76
2024/04/11 07:01:15;;;;;;;6.90;3.83;;;10.70;99.90;;;;;;5488298;26;19998;-76
2024/04/11 07:03:43;;;;;;;6.63;4.22;;;10.70;99.90;;;;;;5489971;26;20002;-76
2024/04/11 07:06:21;;;;;;;3.72;2.83;;;10.80;99.90;;;;;;5488856;26;20003;-76
2024/04/11 07:08:49;;;;;;;4.93;3.42;;;10.80;99.90;;;;;;5490330;26;20005;-77
2024/04/11 07:11:19;;;;;;;4.57;3.60;;;10.80;99.90;;;;;;5488677;26;19994;-76
2024/04/11 07:13:55;;;;;;;8.43;4.03;;;10.90;99.90;;;;;;5490477;26;20020;-76
2024/04/11 07:16:29;;;;;;;7.78;4.03;;;10.90;99.90;;;;;;5490075;26;20113;-76
2024/04/11 07:18:57;;;;;;;8.30;3.42;;;11.00;99.90;;;;;;5488555;26;19994;-76
2024/04/11 07:21:26;;;;;;;3.63;2.38;;;11.00;99.90;;;;;;5489990;26;20046;-76
2024/04/11 07:23:54;;;;;;;3.38;2.58;;;11.10;99.90;;;;;;5487566;26;20030;-76
2024/04/11 07:26:32;;;;;;;3.72;3.22;;;11.10;99.90;;;;;;5487819;26;20013;-76
2024/04/11 07:29:01;;;;;;;4.72;3.20;;;11.20;99.90;;;;;;5487936;26;20073;-76
2024/04/11 07:31:29;;;;;;;3.65;3.33;;;11.20;99.90;;;;;;5516342;26;19997;-76
2024/04/11 07:33:58;;;;;;;4.13;3.42;;;11.30;99.90;;;;;;5524586;26;20005;-77
2024/04/11 07:36:26;;;;;;;4.28;3.97;;;11.30;99.90;;;;;;5494736;26;19997;-77
2024/04/11 07:38:54;;;;;;;8.23;2.80;;;11.40;99.90;;;;;;5491538;26;20069;-77
2024/04/11 07:41:23;;;;;;;3.42;2.58;;;11.40;99.90;;;;;;5524846;26;19997;-77
2024/04/11 07:43:52;;;;;;;5.18;3.47;;;11.50;99.90;;;;;;5526354;26;20001;-76
2024/04/11 07:46:22;;;;;;;7.85;3.25;;;11.50;99.90;;;;;;5525146;26;20064;-76
2024/04/11 07:48:52;;;;;;;5.05;4.20;;;11.60;99.90;;;;;;5494313;26;20021;-76
2024/04/11 07:51:20;;;;;;;;;;;11.60;99.90;;;;;;5525393;26;20001;-77
2024/04/11 07:53:48;;;;;;;5.18;3.92;;;11.60;99.90;;;;;;5464042;26;19930;-77
2024/04/11 07:56:19;;;;;;;5.40;4.07;;;11.60;99.90;;;;;;5526509;25;20061;-76
2024/04/11 07:58:51;;;;;;;;;;;11.60;99.90;;;;;;5525234;26;20065;-77
2024/04/11 08:01:22;;;;;;;4.22;3.25;;;11.60;99.90;;;;;;5526471;25;19930;-76
2024/04/11 08:03:50;;;;;;;6.60;3.85;;;11.70;99.90;;;;;;5525902;26;20012;-76
2024/04/11 08:06:18;;;;;;;3.72;3.13;;;11.70;99.90;;;;;;5524623;26;19997;-77
2024/04/11 08:08:48;;;;;;;5.35;4.07;;;11.80;99.90;;;;;;5524348;26;20014;-77
2024/04/11 08:11:15;;;;;;;3.47;2.45;;;11.80;99.90;;;;;;5524454;26;19998;-77
2024/04/11 08:13:45;;;;;;;3.28;2.97;;;11.80;99.90;;;;;;5524187;26;19998;-77
2024/04/11 08:16:13;;;;;;;7.43;3.05;;;11.90;99.90;;;;;;5523670;25;20110;-77
2024/04/11 08:18:40;;;;;;;8.30;3.65;;;12.10;99.90;;;;;;5523439;26;20002;-77
2024/04/11 08:21:11;;;;;;;5.38;3.92;;;12.20;99.90;;;;;;5486144;26;20375;-77
2024/04/11 08:23:39;;;;;;;6.03;3.85;;;12.30;99.90;;;;;;5456668;26;20026;-77
2024/04/11 08:26:07;;;;;;;8.95;4.05;;;12.30;99.90;;;;;;5489177;26;20009;-77
2024/04/11 08:28:37;;;;;;;4.90;3.80;;;12.40;99.90;;;;;;5457280;26;19994;-76
2024/04/11 08:31:08;;;;;;;6.60;3.90;;;12.40;99.90;;;;;;5518754;26;20066;-77
2024/04/11 08:33:38;;;;;;;4.68;3.53;;;12.50;99.90;;;;;;5489527;26;19998;-77
2024/04/11 08:36:09;;;;;;;4.18;3.65;;;12.60;99.90;;;;;;5489467;26;20022;-77
2024/04/11 08:38:43;;;;;;;6.28;3.78;;;12.70;99.90;;;;;;5489400;26;20004;-77
2024/04/11 08:41:12;;;;;;;5.90;5.43;;;12.70;99.90;;;;;;5518057;26;19998;-77
2024/04/11 08:43:45;;;;;;;4.47;3.10;;;12.80;99.90;;;;;;5488112;26;20002;-76
2024/04/11 08:46:12;;;;;;;4.75;3.35;;;12.90;99.90;;;;;;5488960;26;20488;-77
2024/04/11 08:48:40;;;;;;;5.63;3.60;;;12.90;99.90;;;;;;5486980;26;20016;-77
2024/04/11 08:51:19;;;;;;;6.35;4.75;;;13.10;99.90;;;;;;5487065;26;20031;-77
2024/04/11 08:53:49;;;;;;;9.05;6.00;;;13.20;99.90;;;;;;5486787;26;20017;-77
2024/04/11 08:56:21;;;;;;;5.63;4.65;;;13.20;99.90;;;;;;5487259;26;20013;-77
2024/04/11 08:58:49;;;;;;;8.07;5.60;;;13.20;99.90;;;;;;5456689;26;20008;-77
2024/04/11 09:01:20;;;;;;;8.30;4.82;;;13.20;99.90;;;;;;5517505;26;20075;-77
2024/04/11 09:03:52;;;;;;;6.55;5.32;;;13.20;99.90;;;;;;5488748;26;19997;-77
2024/04/11 09:06:24;;;;;;;6.95;5.35;;;13.30;99.90;;;;;;5489001;26;20006;-77
2024/04/11 09:08:57;;;;;;;8.23;5.32;;;13.40;99.90;;;;;;5486981;26;20005;-77
2024/04/11 09:11:27;;;;;;;7.32;6.32;;;13.40;99.90;;;;;;5488761;26;20350;-77
2024/04/11 09:13:58;;;;;;;7.78;6.25;;;13.50;99.90;;;;;;5486359;26;20391;-77
2024/04/11 09:16:29;;;;;;;5.80;5.30;;;13.50;99.90;;;;;;5456555;26;20074;-77
2024/04/11 09:19:22;;;;;;;7.38;5.53;;;13.40;99.90;;;;;;5517183;26;20447;-76
2024/04/11 09:21:49;;;;;;;5.05;4.53;;;13.30;99.90;;;;;;5486460;26;19998;-77
2024/04/11 09:24:23;;;;;;;4.97;4.22;;;13.20;99.90;;;;;;5486773;26;19998;-77
2024/04/11 09:26:53;;;;;;;8.25;7.55;;;13.20;99.90;;;;;;5516643;26;19998;-76
2024/04/11 09:29:21;;;;;;;5.32;4.68;;;13.10;99.90;;;;;;5486491;26;20030;-76
2024/04/11 09:31:50;;;;;;;5.40;4.90;;;13.00;99.90;;;;;;5486049;26;20078;-76
2024/04/11 09:34:20;;;;;;;7.80;6.22;;;12.90;99.90;;;;;;5397009;26;20448;-75
2024/04/11 09:36:49;;;;;;;9.07;6.90;;;12.90;99.90;;;;;;5487759;26;20012;-75
2024/04/11 09:42:19;;;;;;;6.75;5.75;;;12.80;99.90;;;;;;5488022;26;20005;-76
2024/04/11 09:44:50;;;;;;;7.72;6.88;;;12.80;99.90;;;;;;5486486;26;20424;-76
2024/04/11 09:47:19;;;;;;;8.20;7.05;;;12.90;99.90;;;;;;5456321;26;19994;-76
2024/04/11 09:49:53;;;;;;;9.48;7.45;;;12.90;99.90;;;;;;5516572;26;20002;-76
2024/04/11 09:52:27;;;;;;;8.10;5.63;;;12.90;99.90;;;;;;5516866;26;20436;-76
2024/04/11 09:54:55;;;;;;;8.88;6.85;;;13.00;99.90;;;;;;5498468;26;20017;-76
2024/04/11 09:57:26;;;;;;;11.15;8.05;;;13.10;99.90;;;;;;5495702;26;20009;-76
2024/04/11 09:59:55;;;;;;;8.20;5.82;;;13.20;99.90;;;;;;5527808;25;20493;-76
2024/04/11 10:02:25;;;;;;;6.10;4.82;;;13.20;99.90;;;;;;5473876;26;19998;-76
2024/04/11 10:04:57;;;;;;;9.80;7.43;;;13.30;99.90;;;;;;5511749;26;20009;-75
2024/04/11 10:07:33;;;;;;;8.50;6.22;;;13.30;99.90;;;;;;5526387;26;20009;-76
2024/04/11 10:10:06;;;;;;;8.52;6.15;;;13.30;99.90;;;;;;5527665;25;20009;-76
2024/04/11 10:12:45;;;;;;;6.68;5.95;;;13.50;99.90;;;;;;5528204;25;20371;-76
2024/04/11 10:15:18;;;;;;;6.78;5.53;;;13.50;99.90;;;;;;5525763;26;20013;-76
2024/04/11 10:17:49;;;;;;;10.23;7.80;;;13.60;99.90;;;;;;5527906;25;19997;-76
2024/04/11 10:20:20;;;;;;;8.20;6.28;;;13.70;99.90;;;;;;5466110;26;20012;-76
2024/04/11 10:22:47;;;;;;;7.72;6.10;;;13.70;99.90;;;;;;5526363;26;20384;-76
2024/04/11 10:25:21;;;;;;;6.03;5.55;;;13.80;99.90;;;;;;5526106;26;20066;-76
2024/04/11 10:27:51;;;;;;;6.30;5.65;;;13.80;99.90;;;;;;5528152;26;20034;-76
2024/04/11 10:30:18;;;;;;;13.13;10.05;;;13.90;99.90;;;;;;5525821;26;20075;-76
2024/04/11 10:32:51;;;;;;;8.65;7.63;;;13.90;99.90;;;;;;5525757;26;19993;-76
2024/04/11 10:35:24;;;;;;;9.63;8.63;;;14.00;99.90;;;;;;5527726;25;20446;-76
2024/04/11 10:37:55;;;;;;;11.38;8.50;;;14.00;99.90;;;;;;5525841;26;20383;-76
2024/04/11 10:40:24;;;;;;;7.90;5.72;;;14.20;99.90;;;;;;5525880;26;20009;-76
2024/04/11 10:43:12;;;;;;;6.03;5.53;;;14.30;99.90;;;;;;5527490;25;20454;-76
2024/04/11 10:45:39;;;;;;;9.60;6.07;;;14.50;99.90;;;;;;5527610;25;19998;-76
2024/04/11 10:48:14;;;;;;;10.40;7.95;;;14.70;99.90;;;;;;5525275;26;19998;-76
2024/04/11 10:50:44;;;;;;;7.93;5.45;;;14.80;99.90;;;;;;5525693;26;20009;-76
2024/04/11 10:53:14;;;;;;;7.53;5.70;;;15.00;99.90;;;;;;5525382;26;20029;-76
2024/04/11 10:55:43;;;;;;;5.35;4.85;;;15.10;99.90;;;;;;5525567;26;20398;-76
2024/04/11 10:58:22;;;;;;;6.13;5.53;;;15.00;99.90;;;;;;5494399;26;20005;-76
2024/04/11 11:03:46;;;;;;;7.00;6.40;;;14.80;99.90;;;;;;5527497;25;20357;-75
2024/04/11 11:06:24;;;;;;;6.63;5.85;;;14.60;99.90;;;;;;5526738;25;19993;-76
2024/04/11 11:09:10;;;;;;;7.53;6.80;;;14.50;99.90;;;;;;5527520;25;20013;-76
2024/04/11 11:11:40;;;;;;;7.50;6.38;;;14.40;99.90;;;;;;5525966;26;20005;-76
2024/04/11 11:14:14;;;;;;;10.32;8.90;;;14.30;99.90;;;;;;5526866;25;20000;-76
2024/04/11 11:16:43;;;;;;;8.13;7.43;;;14.20;99.90;;;;;;5525700;26;20439;-76
2024/04/11 11:19:17;;;;;;;10.48;6.88;;;14.20;99.90;;;;;;5494645;26;20007;-76
2024/04/11 11:21:51;;;;;;;8.35;5.78;;;14.20;99.90;;;;;;5526965;25;19997;-76
2024/04/11 11:24:26;;;;;;;9.88;8.48;;;14.20;99.90;;;;;;5526661;25;20459;-76
2024/04/11 11:26:59;;;;;;;7.28;5.55;;;14.10;99.90;;;;;;5525015;26;19997;-76
2024/04/11 11:29:28;;;;;;;10.70;9.60;;;14.00;99.90;;;;;;5524939;26;19997;-76
2024/04/11 11:32:18;;;;;;;8.45;7.63;;;14.00;99.90;;;;;;5524835;26;20073;-76
2024/04/11 11:34:47;;;;;;;8.55;7.70;;;14.00;99.90;;;;;;5526801;25;20335;-76
2024/04/11 11:37:14;;;;;;;8.77;7.03;;;14.10;99.90;;;;;;5524617;26;20629;-76
2024/04/11 11:39:49;;;;;;;8.07;7.28;;;14.10;99.90;;;;;;5494221;26;20441;-76
2024/04/11 11:42:23;;;;;;;9.82;7.20;;;14.10;99.90;;;;;;5524902;26;20001;-76
2024/04/11 11:47:34;;;;;;;7.40;6.28;;;14.20;99.90;;;;;;5524914;26;20012;-76
2024/04/11 11:50:16;;;;;;;7.18;5.43;;;14.40;99.90;;;;;;5525114;26;20463;-76
2024/04/11 11:52:50;;;;;;;11.98;7.13;;;14.50;99.90;;;;;;5524970;26;20376;-76
2024/04/11 11:55:25;;;;;;;13.55;10.80;;;14.60;99.90;;;;;;5495685;26;20375;-76
2024/04/11 11:57:55;;;;;;;10.23;6.38;;;14.60;99.90;;;;;;5524447;26;20391;-76
2024/04/11 12:00:32;;;;;;;5.65;5.20;;;14.60;99.90;;;;;;5524346;26;20005;-76
2024/04/11 12:03:11;;;;;;;6.90;5.38;;;14.70;99.90;;;;;;5526420;25;20065;-76
2024/04/11 12:05:44;;;;;;;9.40;7.53;;;14.70;99.90;;;;;;5524408;26;20320;-75
2024/04/11 12:08:13;;;;;;;9.00;6.65;;;14.80;99.90;;;;;;5526067;26;20001;-76
2024/04/11 12:13:34;;;;;;;9.65;7.00;;;14.90;99.90;;;;;;5525856;26;20009;-76
2024/04/11 12:16:05;;;;;;;8.73;6.75;;;14.90;99.90;;;;;;5526009;25;20009;-74
2024/04/11 12:18:32;;;;;;;10.25;8.15;;;14.80;99.90;;;;;;5522670;26;20016;-74
2024/04/11 12:21:02;;;;;;;10.50;7.85;;;14.70;99.90;;;;;;5526074;26;19997;-74
2024/04/11 12:23:34;;;;;;;10.07;9.18;;;14.50;99.90;;;;;;5525985;25;20005;-74
2024/04/11 12:26:02;;;;;;;8.88;6.60;;;14.30;99.90;;;;;;5526259;25;20004;-74
2024/04/11 12:28:29;;;;;;;10.38;7.55;;;14.20;99.90;;;;;;5525536;26;20434;-74
2024/04/11 12:31:07;;;;;;;7.82;7.03;;;14.10;99.90;;;;;;5488944;26;20036;-74
2024/04/11 12:33:40;;;;;;;9.18;8.13;;;14.10;99.90;;;;;;5489365;26;20030;-74
2024/04/11 12:39:11;;;;;;;7.30;6.55;;;14.10;99.90;;;;;;5461432;26;20420;-74
2024/04/11 12:41:43;;;;;;;10.25;7.13;;;14.00;99.90;;;;;;5488946;26;19998;-74
2024/04/11 12:44:13;;;;;;;9.65;7.47;;;14.00;99.90;;;;;;5456790;26;20043;-74
2024/04/11 12:46:52;;;;;;;5.97;4.97;;;14.00;99.90;;;;;;5457632;26;19998;-74
2024/04/11 12:49:26;;;;;;;7.72;6.95;;;14.00;99.90;;;;;;5486702;26;20339;-74
2024/04/11 12:51:57;;;;;;;8.93;7.82;;;14.00;99.90;;;;;;5488589;26;20077;-74
2024/04/11 12:54:28;;;;;;;7.78;6.93;;;14.00;99.90;;;;;;5486710;26;19998;-74
2024/04/11 12:57:02;;;;;;;5.82;4.93;;;14.00;99.90;;;;;;5486848;26;20009;-74
2024/04/11 12:59:30;;;;;;;8.30;5.78;;;14.10;99.90;;;;;;5486852;26;19994;-74
2024/04/11 13:01:58;;;;;;;9.55;8.35;;;14.00;99.90;;;;;;5487041;26;20006;-74
2024/04/11 13:04:32;;;;;;;4.80;4.40;;;14.10;99.90;;;;;;5490247;26;20455;-74
2024/04/11 13:07:10;;;;;;;7.25;6.10;;;14.10;99.90;;;;;;5486616;26;19998;-74
2024/04/11 13:09:53;;;;;;;8.85;7.68;;;14.20;99.90;;;;;;5484665;26;19994;-74
2024/04/11 13:12:25;;;;;;;4.75;4.30;;;14.20;99.90;;;;;;5456532;26;19995;-74
2024/04/11 13:15:08;;;;;;;;;;;14.10;99.90;;;;;;5487494;26;20078;-74
2024/04/11 13:17:42;;;;;;;8.52;7.72;;;14.10;99.90;;;;;;5488185;26;19931;-74